sensor_id;sensor_type;location;lat;lon;timestamp;temperature;humidity
30148;DHT22;16960;49.404;8.248;2022-10-13T00:00:46;21.60;47.80
30148;DHT22;16960;49.404;8.248;2022-10-13T00:03:14;21.50;47.80
30148;DHT22;16960;49.404;8.248;2022-10-13T00:05:44;21.60;47.80
30148;DHT22;16960;49.404;8.248;2022-10-13T00:08:13;21.50;47.80
30148;DHT22;16960;49.404;8.248;2022-10-13T00:10:40;21.50;47.80
30148;DHT22;16960;49.404;8.248;2022-10-13T00:13:08;21.60;47.80
30148;DHT22;16960;49.404;8.248;2022-10-13T00:15:37;21.50;47.80
30148;DHT22;16960;49.404;8.248;2022-10-13T00:18:04;21.50;47.80
30148;DHT22;16960;49.404;8.248;2022-10-13T00:20:31;21.50;47.80
30148;DHT22;16960;49.404;8.248;2022-10-13T00:23:00;21.50;47.80
30148;DHT22;16960;49.404;8.248;2022-10-13T00:25:27;21.50;47.80
30148;DHT22;16960;49.404;8.248;2022-10-13T00:27:54;21.50;47.80
30148;DHT22;16960;49.404;8.248;2022-10-13T00:30:20;21.50;47.80
30148;DHT22;16960;49.404;8.248;2022-10-13T00:32:47;21.50;47.80
30148;DHT22;16960;49.404;8.248;2022-10-13T00:35:14;21.40;47.60
30148;DHT22;16960;49.404;8.248;2022-10-13T00:37:41;21.50;47.70
30148;DHT22;16960;49.404;8.248;2022-10-13T00:40:11;21.40;47.60
30148;DHT22;16960;49.404;8.248;2022-10-13T00:42:39;21.40;47.60
30148;DHT22;16960;49.404;8.248;2022-10-13T00:45:19;21.40;47.50
30148;DHT22;16960;49.404;8.248;2022-10-13T00:47:49;21.40;47.50
30148;DHT22;16960;49.404;8.248;2022-10-13T00:50:20;21.40;47.50
30148;DHT22;16960;49.404;8.248;2022-10-13T00:52:49;21.40;47.50
30148;DHT22;16960;49.404;8.248;2022-10-13T00:55:20;21.40;47.60
30148;DHT22;16960;49.404;8.248;2022-10-13T00:57:49;21.40;47.60
30148;DHT22;16960;49.404;8.248;2022-10-13T01:00:19;21.40;47.60
30148;DHT22;16960;49.404;8.248;2022-10-13T01:02:47;21.40;47.60
30148;DHT22;16960;49.404;8.248;2022-10-13T01:05:14;21.40;47.60
30148;DHT22;16960;49.404;8.248;2022-10-13T01:07:41;21.40;47.60
30148;DHT22;16960;49.404;8.248;2022-10-13T01:10:09;21.40;47.60
30148;DHT22;16960;49.404;8.248;2022-10-13T01:12:42;21.40;47.60
30148;DHT22;16960;49.404;8.248;2022-10-13T01:15:19;21.30;47.60
30148;DHT22;16960;49.404;8.248;2022-10-13T01:17:55;21.40;47.70
30148;DHT22;16960;49.404;8.248;2022-10-13T01:20:41;21.30;47.60
30148;DHT22;16960;49.404;8.248;2022-10-13T01:24:01;21.30;47.70
30148;DHT22;16960;49.404;8.248;2022-10-13T01:35:38;21.30;47.60
30148;DHT22;16960;49.404;8.248;2022-10-13T01:38:10;21.30;47.50
30148;DHT22;16960;49.404;8.248;2022-10-13T01:40:43;21.30;47.50
30148;DHT22;16960;49.404;8.248;2022-10-13T01:43:16;21.30;47.50
30148;DHT22;16960;49.404;8.248;2022-10-13T01:45:49;21.20;47.40
30148;DHT22;16960;49.404;8.248;2022-10-13T01:48:18;21.20;48.20
30148;DHT22;16960;49.404;8.248;2022-10-13T01:50:46;21.20;47.50
30148;DHT22;16960;49.404;8.248;2022-10-13T01:53:14;21.30;47.60
30148;DHT22;16960;49.404;8.248;2022-10-13T01:55:50;21.20;47.50
30148;DHT22;16960;49.404;8.248;2022-10-13T01:58:17;21.20;47.40
30148;DHT22;16960;49.404;8.248;2022-10-13T02:00:52;21.20;47.50
30148;DHT22;16960;49.404;8.248;2022-10-13T02:03:32;21.20;47.40
30148;DHT22;16960;49.404;8.248;2022-10-13T02:06:08;21.20;47.50
30148;DHT22;16960;49.404;8.248;2022-10-13T02:08:43;21.20;47.50
30148;DHT22;16960;49.404;8.248;2022-10-13T02:11:13;21.20;47.50
30148;DHT22;16960;49.404;8.248;2022-10-13T02:13:44;21.20;47.50
30148;DHT22;16960;49.404;8.248;2022-10-13T02:16:14;21.20;47.50
30148;DHT22;16960;49.404;8.248;2022-10-13T02:18:43;21.20;47.50
30148;DHT22;16960;49.404;8.248;2022-10-13T02:21:10;21.10;47.50
30148;DHT22;16960;49.404;8.248;2022-10-13T02:23:37;21.20;47.50
30148;DHT22;16960;49.404;8.248;2022-10-13T02:26:04;21.20;47.50
30148;DHT22;16960;49.404;8.248;2022-10-13T02:28:31;21.20;47.50
30148;DHT22;16960;49.404;8.248;2022-10-13T02:30:58;21.20;47.50
30148;DHT22;16960;49.404;8.248;2022-10-13T02:33:25;21.20;47.50
30148;DHT22;16960;49.404;8.248;2022-10-13T02:35:54;21.20;47.40
30148;DHT22;16960;49.404;8.248;2022-10-13T02:38:21;21.20;47.50
30148;DHT22;16960;49.404;8.248;2022-10-13T02:40:47;21.20;47.50
30148;DHT22;16960;49.404;8.248;2022-10-13T02:43:14;21.10;47.50
30148;DHT22;16960;49.404;8.248;2022-10-13T02:45:41;21.10;47.60
30148;DHT22;16960;49.404;8.248;2022-10-13T02:48:08;21.10;47.50
30148;DHT22;16960;49.404;8.248;2022-10-13T02:50:35;21.10;47.50
30148;DHT22;16960;49.404;8.248;2022-10-13T02:53:03;21.10;47.50
30148;DHT22;16960;49.404;8.248;2022-10-13T02:55:30;21.10;47.50
30148;DHT22;16960;49.404;8.248;2022-10-13T02:57:57;21.10;47.50
30148;DHT22;16960;49.404;8.248;2022-10-13T03:00:24;21.10;47.50
30148;DHT22;16960;49.404;8.248;2022-10-13T03:02:51;21.10;47.60
30148;DHT22;16960;49.404;8.248;2022-10-13T03:05:18;21.10;47.50
30148;DHT22;16960;49.404;8.248;2022-10-13T03:07:45;21.00;47.50
30148;DHT22;16960;49.404;8.248;2022-10-13T03:10:14;21.10;47.60
30148;DHT22;16960;49.404;8.248;2022-10-13T03:12:40;21.00;47.50
30148;DHT22;16960;49.404;8.248;2022-10-13T03:15:08;21.00;47.50
30148;DHT22;16960;49.404;8.248;2022-10-13T03:17:35;21.00;47.40
30148;DHT22;16960;49.404;8.248;2022-10-13T03:20:02;21.00;47.50
30148;DHT22;16960;49.404;8.248;2022-10-13T03:22:30;21.00;47.50
30148;DHT22;16960;49.404;8.248;2022-10-13T03:24:57;21.00;47.60
30148;DHT22;16960;49.404;8.248;2022-10-13T03:27:26;21.00;47.60
30148;DHT22;16960;49.404;8.248;2022-10-13T03:29:53;21.00;47.70
30148;DHT22;16960;49.404;8.248;2022-10-13T03:32:20;21.00;47.70
30148;DHT22;16960;49.404;8.248;2022-10-13T03:34:46;21.00;47.70
30148;DHT22;16960;49.404;8.248;2022-10-13T03:37:13;21.00;47.70
30148;DHT22;16960;49.404;8.248;2022-10-13T03:39:40;21.00;47.80
30148;DHT22;16960;49.404;8.248;2022-10-13T03:42:07;21.00;47.80
30148;DHT22;16960;49.404;8.248;2022-10-13T03:44:36;21.00;47.80
30148;DHT22;16960;49.404;8.248;2022-10-13T03:47:03;21.00;47.80
30148;DHT22;16960;49.404;8.248;2022-10-13T03:49:30;20.90;47.80
30148;DHT22;16960;49.404;8.248;2022-10-13T03:51:57;20.90;47.80
30148;DHT22;16960;49.404;8.248;2022-10-13T03:54:24;20.90;47.80
30148;DHT22;16960;49.404;8.248;2022-10-13T03:56:51;20.90;47.80
30148;DHT22;16960;49.404;8.248;2022-10-13T03:59:18;20.90;47.80
30148;DHT22;16960;49.404;8.248;2022-10-13T04:01:46;20.90;47.80
30148;DHT22;16960;49.404;8.248;2022-10-13T04:04:13;21.00;47.80
30148;DHT22;16960;49.404;8.248;2022-10-13T04:06:40;20.90;47.80
30148;DHT22;16960;49.404;8.248;2022-10-13T04:09:07;20.90;47.80
30148;DHT22;16960;49.404;8.248;2022-10-13T04:11:34;20.90;47.80
30148;DHT22;16960;49.404;8.248;2022-10-13T04:14:01;20.90;47.80
30148;DHT22;16960;49.404;8.248;2022-10-13T04:16:29;20.90;47.80
30148;DHT22;16960;49.404;8.248;2022-10-13T04:18:59;20.90;47.80
30148;DHT22;16960;49.404;8.248;2022-10-13T04:21:27;20.90;47.80
30148;DHT22;16960;49.404;8.248;2022-10-13T04:23:54;20.90;47.80
30148;DHT22;16960;49.404;8.248;2022-10-13T04:26:24;20.90;47.70
30148;DHT22;16960;49.404;8.248;2022-10-13T04:28:52;20.90;48.40
30148;DHT22;16960;49.404;8.248;2022-10-13T04:31:19;20.90;47.70
30148;DHT22;16960;49.404;8.248;2022-10-13T04:33:47;20.80;47.60
30148;DHT22;16960;49.404;8.248;2022-10-13T04:36:17;20.80;47.50
30148;DHT22;16960;49.404;8.248;2022-10-13T04:38:44;20.90;47.60
30148;DHT22;16960;49.404;8.248;2022-10-13T04:41:12;20.90;47.60
30148;DHT22;16960;49.404;8.248;2022-10-13T04:43:39;20.80;47.50
30148;DHT22;16960;49.404;8.248;2022-10-13T04:46:08;20.80;47.50
30148;DHT22;16960;49.404;8.248;2022-10-13T04:48:35;20.80;47.50
30148;DHT22;16960;49.404;8.248;2022-10-13T04:51:04;20.80;47.50
30148;DHT22;16960;49.404;8.248;2022-10-13T04:53:33;20.80;47.50
30148;DHT22;16960;49.404;8.248;2022-10-13T04:56:00;20.80;47.60
30148;DHT22;16960;49.404;8.248;2022-10-13T04:58:28;20.80;47.60
30148;DHT22;16960;49.404;8.248;2022-10-13T05:00:55;20.80;47.50
30148;DHT22;16960;49.404;8.248;2022-10-13T05:03:22;20.80;47.50
30148;DHT22;16960;49.404;8.248;2022-10-13T05:05:50;20.80;47.50
30148;DHT22;16960;49.404;8.248;2022-10-13T05:08:17;20.80;47.60
30148;DHT22;16960;49.404;8.248;2022-10-13T05:10:53;20.70;47.50
30148;DHT22;16960;49.404;8.248;2022-10-13T05:13:20;20.80;47.50
30148;DHT22;16960;49.404;8.248;2022-10-13T05:15:47;20.80;47.50
30148;DHT22;16960;49.404;8.248;2022-10-13T05:18:14;20.80;47.40
30148;DHT22;16960;49.404;8.248;2022-10-13T05:20:41;20.80;47.40
30148;DHT22;16960;49.404;8.248;2022-10-13T05:23:08;20.80;47.40
30148;DHT22;16960;49.404;8.248;2022-10-13T05:25:35;20.70;47.40
30148;DHT22;16960;49.404;8.248;2022-10-13T05:28:05;20.80;47.40
30148;DHT22;16960;49.404;8.248;2022-10-13T05:30:33;20.70;47.50
30148;DHT22;16960;49.404;8.248;2022-10-13T05:33:00;20.70;47.40
30148;DHT22;16960;49.404;8.248;2022-10-13T05:35:27;20.70;47.40
30148;DHT22;16960;49.404;8.248;2022-10-13T05:37:54;20.70;47.50
30148;DHT22;16960;49.404;8.248;2022-10-13T05:40:21;20.70;47.50
30148;DHT22;16960;49.404;8.248;2022-10-13T05:42:48;20.70;47.50
30148;DHT22;16960;49.404;8.248;2022-10-13T05:45:18;20.70;47.60
30148;DHT22;16960;49.404;8.248;2022-10-13T05:47:47;20.70;47.60
30148;DHT22;16960;49.404;8.248;2022-10-13T05:50:14;20.70;47.70
30148;DHT22;16960;49.404;8.248;2022-10-13T05:52:41;20.70;47.70
30148;DHT22;16960;49.404;8.248;2022-10-13T05:55:09;20.70;47.80
30148;DHT22;16960;49.404;8.248;2022-10-13T05:57:40;20.70;47.90
30148;DHT22;16960;49.404;8.248;2022-10-13T06:00:09;20.70;47.80
30148;DHT22;16960;49.404;8.248;2022-10-13T06:02:43;20.70;47.80
30148;DHT22;16960;49.404;8.248;2022-10-13T06:05:13;20.70;47.70
30148;DHT22;16960;49.404;8.248;2022-10-13T06:07:41;20.70;47.70
30148;DHT22;16960;49.404;8.248;2022-10-13T06:10:09;20.70;47.70
30148;DHT22;16960;49.404;8.248;2022-10-13T06:12:37;20.70;47.70
30148;DHT22;16960;49.404;8.248;2022-10-13T06:15:04;20.60;47.70
30148;DHT22;16960;49.404;8.248;2022-10-13T06:17:34;20.60;47.70
30148;DHT22;16960;49.404;8.248;2022-10-13T06:20:03;20.60;47.60
30148;DHT22;16960;49.404;8.248;2022-10-13T06:22:30;20.60;47.60
30148;DHT22;16960;49.404;8.248;2022-10-13T06:24:57;20.60;47.50
30148;DHT22;16960;49.404;8.248;2022-10-13T06:27:25;20.60;47.50
30148;DHT22;16960;49.404;8.248;2022-10-13T06:29:52;20.60;47.50
30148;DHT22;16960;49.404;8.248;2022-10-13T06:32:19;20.60;47.50
30148;DHT22;16960;49.404;8.248;2022-10-13T06:34:46;20.60;47.50
30148;DHT22;16960;49.404;8.248;2022-10-13T06:37:14;20.60;47.50
30148;DHT22;16960;49.404;8.248;2022-10-13T06:39:41;20.60;47.60
30148;DHT22;16960;49.404;8.248;2022-10-13T06:42:08;20.60;47.70
30148;DHT22;16960;49.404;8.248;2022-10-13T06:44:35;20.50;47.70
30148;DHT22;16960;49.404;8.248;2022-10-13T06:47:02;20.50;47.70
30148;DHT22;16960;49.404;8.248;2022-10-13T06:49:30;20.50;47.70
30148;DHT22;16960;49.404;8.248;2022-10-13T06:51:57;20.50;47.80
30148;DHT22;16960;49.404;8.248;2022-10-13T06:54:25;20.50;47.80
30148;DHT22;16960;49.404;8.248;2022-10-13T06:56:52;20.50;47.90
30148;DHT22;16960;49.404;8.248;2022-10-13T06:59:19;20.50;48.00
30148;DHT22;16960;49.404;8.248;2022-10-13T07:01:46;20.50;48.00
30148;DHT22;16960;49.404;8.248;2022-10-13T07:04:14;20.50;48.00
30148;DHT22;16960;49.404;8.248;2022-10-13T07:06:41;20.50;48.00
30148;DHT22;16960;49.404;8.248;2022-10-13T07:09:08;20.50;48.00
30148;DHT22;16960;49.404;8.248;2022-10-13T07:11:36;20.50;48.00
30148;DHT22;16960;49.404;8.248;2022-10-13T07:14:03;20.50;48.00
30148;DHT22;16960;49.404;8.248;2022-10-13T07:16:30;20.50;48.00
30148;DHT22;16960;49.404;8.248;2022-10-13T07:18:57;20.50;48.00
30148;DHT22;16960;49.404;8.248;2022-10-13T07:21:24;20.50;48.00
30148;DHT22;16960;49.404;8.248;2022-10-13T07:23:51;20.50;48.70
30148;DHT22;16960;49.404;8.248;2022-10-13T07:26:18;20.50;48.00
30148;DHT22;16960;49.404;8.248;2022-10-13T07:28:47;20.50;48.00
30148;DHT22;16960;49.404;8.248;2022-10-13T07:31:16;20.50;48.00
30148;DHT22;16960;49.404;8.248;2022-10-13T07:33:45;20.50;48.00
30148;DHT22;16960;49.404;8.248;2022-10-13T07:36:13;20.50;48.00
30148;DHT22;16960;49.404;8.248;2022-10-13T07:38:39;20.50;48.00
30148;DHT22;16960;49.404;8.248;2022-10-13T07:41:08;20.50;48.00
30148;DHT22;16960;49.404;8.248;2022-10-13T07:43:36;20.50;47.90
30148;DHT22;16960;49.404;8.248;2022-10-13T07:46:05;20.50;48.00
30148;DHT22;16960;49.404;8.248;2022-10-13T07:48:33;20.50;47.90
30148;DHT22;16960;49.404;8.248;2022-10-13T07:51:03;20.50;47.90
30148;DHT22;16960;49.404;8.248;2022-10-13T07:53:30;20.50;47.80
30148;DHT22;16960;49.404;8.248;2022-10-13T07:55:59;20.50;47.80
30148;DHT22;16960;49.404;8.248;2022-10-13T07:58:26;20.50;47.80
30148;DHT22;16960;49.404;8.248;2022-10-13T08:00:56;20.50;47.70
30148;DHT22;16960;49.404;8.248;2022-10-13T08:03:24;20.50;47.70
30148;DHT22;16960;49.404;8.248;2022-10-13T08:05:52;20.60;47.70
30148;DHT22;16960;49.404;8.248;2022-10-13T08:08:19;20.50;47.70
30148;DHT22;16960;49.404;8.248;2022-10-13T08:10:46;20.60;47.70
30148;DHT22;16960;49.404;8.248;2022-10-13T08:13:13;20.60;47.70
30148;DHT22;16960;49.404;8.248;2022-10-13T08:15:40;20.60;47.70
30148;DHT22;16960;49.404;8.248;2022-10-13T08:18:07;20.50;47.70
30148;DHT22;16960;49.404;8.248;2022-10-13T08:20:38;20.50;47.70
30148;DHT22;16960;49.404;8.248;2022-10-13T08:23:05;20.50;47.80
30148;DHT22;16960;49.404;8.248;2022-10-13T08:25:35;20.50;47.80
30148;DHT22;16960;49.404;8.248;2022-10-13T08:28:03;20.50;47.80
30148;DHT22;16960;49.404;8.248;2022-10-13T08:30:30;20.50;47.80
30148;DHT22;16960;49.404;8.248;2022-10-13T08:32:57;20.50;47.70
30148;DHT22;16960;49.404;8.248;2022-10-13T08:35:24;20.50;47.80
30148;DHT22;16960;49.404;8.248;2022-10-13T08:37:52;20.50;47.70
30148;DHT22;16960;49.404;8.248;2022-10-13T08:40:20;20.50;47.70
30148;DHT22;16960;49.404;8.248;2022-10-13T08:42:48;20.50;47.80
30148;DHT22;16960;49.404;8.248;2022-10-13T08:45:19;20.40;47.60
30148;DHT22;16960;49.404;8.248;2022-10-13T08:47:50;20.40;47.60
30148;DHT22;16960;49.404;8.248;2022-10-13T08:50:21;20.40;47.70
30148;DHT22;16960;49.404;8.248;2022-10-13T08:52:53;20.50;47.70
30148;DHT22;16960;49.404;8.248;2022-10-13T08:55:27;20.50;47.70
30148;DHT22;16960;49.404;8.248;2022-10-13T08:57:56;20.50;47.70
30148;DHT22;16960;49.404;8.248;2022-10-13T09:00:23;20.50;47.70
30148;DHT22;16960;49.404;8.248;2022-10-13T09:02:50;20.50;47.70
30148;DHT22;16960;49.404;8.248;2022-10-13T09:05:36;20.50;47.70
30148;DHT22;16960;49.404;8.248;2022-10-13T09:08:12;20.50;47.60
30148;DHT22;16960;49.404;8.248;2022-10-13T09:10:48;20.50;47.60
30148;DHT22;16960;49.404;8.248;2022-10-13T09:13:15;20.50;47.60
30148;DHT22;16960;49.404;8.248;2022-10-13T09:15:42;20.50;47.60
30148;DHT22;16960;49.404;8.248;2022-10-13T09:18:11;20.50;47.60
30148;DHT22;16960;49.404;8.248;2022-10-13T09:20:39;20.50;47.60
30148;DHT22;16960;49.404;8.248;2022-10-13T09:23:18;20.50;47.60
30148;DHT22;16960;49.404;8.248;2022-10-13T09:25:46;20.50;47.60
30148;DHT22;16960;49.404;8.248;2022-10-13T09:28:18;20.50;47.60
30148;DHT22;16960;49.404;8.248;2022-10-13T09:30:46;20.50;47.60
30148;DHT22;16960;49.404;8.248;2022-10-13T09:33:20;20.50;47.60
30148;DHT22;16960;49.404;8.248;2022-10-13T09:35:48;20.50;47.60
30148;DHT22;16960;49.404;8.248;2022-10-13T09:38:20;20.50;47.50
30148;DHT22;16960;49.404;8.248;2022-10-13T09:40:59;20.50;47.50
30148;DHT22;16960;49.404;8.248;2022-10-13T09:43:30;20.50;47.50
30148;DHT22;16960;49.404;8.248;2022-10-13T09:45:58;20.50;47.50
30148;DHT22;16960;49.404;8.248;2022-10-13T09:48:29;20.50;47.80
30148;DHT22;16960;49.404;8.248;2022-10-13T09:50:57;20.50;47.50
30148;DHT22;16960;49.404;8.248;2022-10-13T09:53:30;20.50;47.50
30148;DHT22;16960;49.404;8.248;2022-10-13T09:56:18;20.50;47.40
30148;DHT22;16960;49.404;8.248;2022-10-13T09:58:51;20.60;47.40
30148;DHT22;16960;49.404;8.248;2022-10-13T10:01:24;20.60;47.40
30148;DHT22;16960;49.404;8.248;2022-10-13T10:03:53;20.60;47.40
30148;DHT22;16960;49.404;8.248;2022-10-13T10:06:21;20.50;47.40
30148;DHT22;16960;49.404;8.248;2022-10-13T10:08:54;20.50;47.40
30148;DHT22;16960;49.404;8.248;2022-10-13T10:11:27;20.50;47.40
30148;DHT22;16960;49.404;8.248;2022-10-13T10:13:55;20.50;47.40
30148;DHT22;16960;49.404;8.248;2022-10-13T10:16:27;20.50;47.40
30148;DHT22;16960;49.404;8.248;2022-10-13T10:19:00;20.50;47.40
30148;DHT22;16960;49.404;8.248;2022-10-13T10:21:33;20.50;47.40
30148;DHT22;16960;49.404;8.248;2022-10-13T10:24:11;20.50;47.40
30148;DHT22;16960;49.404;8.248;2022-10-13T10:26:49;20.50;47.40
30148;DHT22;16960;49.404;8.248;2022-10-13T10:29:23;20.50;47.40
30148;DHT22;16960;49.404;8.248;2022-10-13T10:32:15;20.50;47.40
30148;DHT22;16960;49.404;8.248;2022-10-13T10:34:51;20.50;47.40
30148;DHT22;16960;49.404;8.248;2022-10-13T10:37:30;20.50;47.40
30148;DHT22;16960;49.404;8.248;2022-10-13T10:40:15;20.50;47.40
30148;DHT22;16960;49.404;8.248;2022-10-13T10:42:55;20.50;47.40
30148;DHT22;16960;49.404;8.248;2022-10-13T10:45:26;20.60;48.10
30148;DHT22;16960;49.404;8.248;2022-10-13T10:47:55;20.50;47.40
30148;DHT22;16960;49.404;8.248;2022-10-13T10:50:23;20.50;47.40
30148;DHT22;16960;49.404;8.248;2022-10-13T10:52:55;20.50;47.40
30148;DHT22;16960;49.404;8.248;2022-10-13T10:55:30;20.50;47.40
30148;DHT22;16960;49.404;8.248;2022-10-13T10:58:06;20.50;47.40
30148;DHT22;16960;49.404;8.248;2022-10-13T11:00:42;20.60;47.40
30148;DHT22;16960;49.404;8.248;2022-10-13T11:03:18;20.60;47.30
30148;DHT22;16960;49.404;8.248;2022-10-13T11:05:59;20.60;47.20
30148;DHT22;16960;49.404;8.248;2022-10-13T11:08:28;20.70;47.20
30148;DHT22;16960;49.404;8.248;2022-10-13T11:14:15;20.80;47.00
30148;DHT22;16960;49.404;8.248;2022-10-13T11:17:06;20.80;46.80
30148;DHT22;16960;49.404;8.248;2022-10-13T11:19:36;20.90;46.80
30148;DHT22;16960;49.404;8.248;2022-10-13T11:22:22;20.90;46.70
30148;DHT22;16960;49.404;8.248;2022-10-13T11:24:58;21.00;46.60
30148;DHT22;16960;49.404;8.248;2022-10-13T11:27:41;21.00;46.60
30148;DHT22;16960;49.404;8.248;2022-10-13T11:30:44;21.00;46.60
30148;DHT22;16960;49.404;8.248;2022-10-13T11:33:51;21.10;46.60
30148;DHT22;16960;49.404;8.248;2022-10-13T11:36:49;21.10;46.50
30148;DHT22;16960;49.404;8.248;2022-10-13T11:39:46;21.10;46.50
30148;DHT22;16960;49.404;8.248;2022-10-13T11:42:35;21.10;46.40
30148;DHT22;16960;49.404;8.248;2022-10-13T11:45:16;21.10;46.40
30148;DHT22;16960;49.404;8.248;2022-10-13T11:50:57;21.20;46.30
30148;DHT22;16960;49.404;8.248;2022-10-13T11:53:32;21.20;46.30
30148;DHT22;16960;49.404;8.248;2022-10-13T11:56:18;21.20;46.30
30148;DHT22;16960;49.404;8.248;2022-10-13T11:58:45;21.10;46.40
30148;DHT22;16960;49.404;8.248;2022-10-13T12:01:14;21.10;46.40
30148;DHT22;16960;49.404;8.248;2022-10-13T12:03:44;21.10;46.40
30148;DHT22;16960;49.404;8.248;2022-10-13T12:06:24;21.10;46.40
30148;DHT22;16960;49.404;8.248;2022-10-13T12:09:00;21.10;46.40
30148;DHT22;16960;49.404;8.248;2022-10-13T12:11:29;21.10;46.50
30148;DHT22;16960;49.404;8.248;2022-10-13T12:13:59;21.10;46.50
30148;DHT22;16960;49.404;8.248;2022-10-13T12:16:26;21.10;46.50
30148;DHT22;16960;49.404;8.248;2022-10-13T12:19:07;21.10;46.50
30148;DHT22;16960;49.404;8.248;2022-10-13T12:21:47;21.10;46.50
30148;DHT22;16960;49.404;8.248;2022-10-13T12:24:14;21.10;46.50
30148;DHT22;16960;49.404;8.248;2022-10-13T12:26:42;21.10;46.50
30148;DHT22;16960;49.404;8.248;2022-10-13T12:29:11;21.10;46.60
30148;DHT22;16960;49.404;8.248;2022-10-13T12:31:40;21.10;46.60
30148;DHT22;16960;49.404;8.248;2022-10-13T12:34:19;21.10;46.60
30148;DHT22;16960;49.404;8.248;2022-10-13T12:36:53;21.10;46.70
30148;DHT22;16960;49.404;8.248;2022-10-13T12:39:21;21.10;46.70
30148;DHT22;16960;49.404;8.248;2022-10-13T12:41:50;21.10;46.60
30148;DHT22;16960;49.404;8.248;2022-10-13T12:44:20;21.10;46.50
30148;DHT22;16960;49.404;8.248;2022-10-13T12:46:49;21.10;46.50
30148;DHT22;16960;49.404;8.248;2022-10-13T12:49:21;21.20;46.50
30148;DHT22;16960;49.404;8.248;2022-10-13T12:51:50;21.10;46.50
30148;DHT22;16960;49.404;8.248;2022-10-13T12:54:21;21.10;46.50
30148;DHT22;16960;49.404;8.248;2022-10-13T12:56:50;21.10;46.50
30148;DHT22;16960;49.404;8.248;2022-10-13T12:59:19;21.10;46.50
30148;DHT22;16960;49.404;8.248;2022-10-13T13:01:52;21.10;46.50
30148;DHT22;16960;49.404;8.248;2022-10-13T13:04:40;21.10;46.50
30148;DHT22;16960;49.404;8.248;2022-10-13T13:07:30;21.10;46.50
30148;DHT22;16960;49.404;8.248;2022-10-13T13:10:15;21.10;46.50
30148;DHT22;16960;49.404;8.248;2022-10-13T13:12:43;21.10;46.60
30148;DHT22;16960;49.404;8.248;2022-10-13T13:18:22;21.10;46.60
30148;DHT22;16960;49.404;8.248;2022-10-13T13:20:52;21.10;46.60
30148;DHT22;16960;49.404;8.248;2022-10-13T13:23:19;21.10;46.70
30148;DHT22;16960;49.404;8.248;2022-10-13T13:25:47;21.10;46.70
30148;DHT22;16960;49.404;8.248;2022-10-13T13:28:28;21.10;46.70
30148;DHT22;16960;49.404;8.248;2022-10-13T13:30:56;21.10;46.70
30148;DHT22;16960;49.404;8.248;2022-10-13T13:33:22;21.10;46.70
30148;DHT22;16960;49.404;8.248;2022-10-13T13:35:51;21.10;46.70
30148;DHT22;16960;49.404;8.248;2022-10-13T13:38:18;21.10;46.70
30148;DHT22;16960;49.404;8.248;2022-10-13T13:40:45;21.10;46.70
30148;DHT22;16960;49.404;8.248;2022-10-13T13:43:12;21.10;46.70
30148;DHT22;16960;49.404;8.248;2022-10-13T13:45:39;21.10;46.70
30148;DHT22;16960;49.404;8.248;2022-10-13T13:48:07;21.10;46.70
30148;DHT22;16960;49.404;8.248;2022-10-13T13:50:35;21.10;46.60
30148;DHT22;16960;49.404;8.248;2022-10-13T13:53:04;21.10;46.60
30148;DHT22;16960;49.404;8.248;2022-10-13T13:55:31;21.10;46.60
30148;DHT22;16960;49.404;8.248;2022-10-13T13:57:58;21.10;46.60
30148;DHT22;16960;49.404;8.248;2022-10-13T14:00:25;21.10;46.60
30148;DHT22;16960;49.404;8.248;2022-10-13T14:02:52;21.10;46.60
30148;DHT22;16960;49.404;8.248;2022-10-13T14:05:19;21.10;46.60
30148;DHT22;16960;49.404;8.248;2022-10-13T14:07:46;21.10;46.60
30148;DHT22;16960;49.404;8.248;2022-10-13T14:10:14;21.10;46.70
30148;DHT22;16960;49.404;8.248;2022-10-13T14:12:41;21.10;46.60
30148;DHT22;16960;49.404;8.248;2022-10-13T14:15:09;21.10;46.70
30148;DHT22;16960;49.404;8.248;2022-10-13T14:17:36;21.10;46.70
30148;DHT22;16960;49.404;8.248;2022-10-13T14:20:03;21.10;46.70
30148;DHT22;16960;49.404;8.248;2022-10-13T14:22:30;21.10;46.70
30148;DHT22;16960;49.404;8.248;2022-10-13T14:24:57;21.10;46.70
30148;DHT22;16960;49.404;8.248;2022-10-13T14:27:26;21.10;46.70
30148;DHT22;16960;49.404;8.248;2022-10-13T14:29:53;21.00;46.60
30148;DHT22;16960;49.404;8.248;2022-10-13T14:32:19;21.10;46.80
30148;DHT22;16960;49.404;8.248;2022-10-13T14:34:46;21.10;46.80
30148;DHT22;16960;49.404;8.248;2022-10-13T14:37:13;21.00;46.70
30148;DHT22;16960;49.404;8.248;2022-10-13T14:39:40;21.00;46.70
30148;DHT22;16960;49.404;8.248;2022-10-13T14:42:07;21.00;46.80
30148;DHT22;16960;49.404;8.248;2022-10-13T14:44:35;21.00;46.80
30148;DHT22;16960;49.404;8.248;2022-10-13T14:47:02;21.00;46.80
30148;DHT22;16960;49.404;8.248;2022-10-13T14:49:29;21.00;46.80
30148;DHT22;16960;49.404;8.248;2022-10-13T14:51:56;21.00;46.80
30148;DHT22;16960;49.404;8.248;2022-10-13T14:54:23;21.00;46.90
30148;DHT22;16960;49.404;8.248;2022-10-13T14:56:50;21.00;46.90
30148;DHT22;16960;49.404;8.248;2022-10-13T14:59:17;21.00;46.90
30148;DHT22;16960;49.404;8.248;2022-10-13T15:01:46;21.00;46.90
30148;DHT22;16960;49.404;8.248;2022-10-13T15:04:14;21.00;46.90
30148;DHT22;16960;49.404;8.248;2022-10-13T15:06:40;20.90;46.90
30148;DHT22;16960;49.404;8.248;2022-10-13T15:09:08;21.00;47.10
30148;DHT22;16960;49.404;8.248;2022-10-13T15:11:36;21.00;48.30
30148;DHT22;16960;49.404;8.248;2022-10-13T15:14:04;21.10;49.00
30148;DHT22;16960;49.404;8.248;2022-10-13T15:16:32;21.10;49.00
30148;DHT22;16960;49.404;8.248;2022-10-13T15:19:02;21.10;50.70
30148;DHT22;16960;49.404;8.248;2022-10-13T15:21:29;21.10;51.40
30148;DHT22;16960;49.404;8.248;2022-10-13T15:23:56;21.10;51.20
30148;DHT22;16960;49.404;8.248;2022-10-13T15:26:23;21.10;50.50
30148;DHT22;16960;49.404;8.248;2022-10-13T15:28:51;21.10;49.50
30148;DHT22;16960;49.404;8.248;2022-10-13T15:31:20;21.10;48.80
30148;DHT22;16960;49.404;8.248;2022-10-13T15:33:48;21.20;48.40
30148;DHT22;16960;49.404;8.248;2022-10-13T15:36:18;21.30;48.20
30148;DHT22;16960;49.404;8.248;2022-10-13T15:38:45;21.30;48.00
30148;DHT22;16960;49.404;8.248;2022-10-13T15:41:13;21.30;47.90
30148;DHT22;16960;49.404;8.248;2022-10-13T15:43:41;21.30;47.70
30148;DHT22;16960;49.404;8.248;2022-10-13T15:46:10;21.40;47.70
30148;DHT22;16960;49.404;8.248;2022-10-13T15:48:45;21.40;47.60
30148;DHT22;16960;49.404;8.248;2022-10-13T15:51:13;21.40;47.50
30148;DHT22;16960;49.404;8.248;2022-10-13T15:53:42;21.40;47.40
30148;DHT22;16960;49.404;8.248;2022-10-13T15:56:09;21.40;47.60
30148;DHT22;16960;49.404;8.248;2022-10-13T15:58:36;21.40;47.40
30148;DHT22;16960;49.404;8.248;2022-10-13T16:01:06;21.40;47.40
30148;DHT22;16960;49.404;8.248;2022-10-13T16:03:34;21.40;47.30
30148;DHT22;16960;49.404;8.248;2022-10-13T16:06:02;21.40;47.20